createdAt,value
2023-03-31T00:01:18.707Z,97539.40
2023-03-31T00:03:05.689Z,97544.10
2023-03-31T00:04:40.129Z,97541.84
2023-03-31T00:06:13.421Z,97543.95
2023-03-31T00:08:01.705Z,97540.35
2023-03-31T00:09:25.837Z,97548.29
2023-03-31T00:11:06.599Z,97542.64
2023-03-31T00:12:44.732Z,97544.48
2023-03-31T00:14:18.249Z,97545.89
2023-03-31T00:15:56.103Z,97551.08
2023-03-31T00:17:33.147Z,97547.89
2023-03-31T00:19:02.625Z,97548.27
2023-03-31T00:20:38.205Z,97544.92
2023-03-31T00:22:11.625Z,97546.58
2023-03-31T00:23:54.468Z,97550.21
2023-03-31T00:25:31.061Z,97543.48
2023-03-31T00:27:11.349Z,97544.45
2023-03-31T00:28:52.322Z,97538.80
2023-03-31T00:30:33.770Z,97547.58
2023-03-31T00:32:19.133Z,97547.06
2023-03-31T00:34:06.367Z,97544.61
2023-03-31T00:35:29.185Z,97543.34
2023-03-31T00:36:56.389Z,97544.76
2023-03-31T00:38:22.980Z,97542.16
2023-03-31T00:39:46.519Z,97541.13
2023-03-31T00:41:10.509Z,97540.22
2023-03-31T00:42:44.015Z,97537.61
2023-03-31T00:44:10.625Z,97538.33
2023-03-31T00:45:56.766Z,97526.48
2023-03-31T00:47:32.734Z,97540.95
2023-03-31T00:48:57.513Z,97536.91
2023-03-31T00:50:26.762Z,97536.09
2023-03-31T00:52:03.582Z,97535.80
2023-03-31T00:53:29.864Z,97530.48
2023-03-31T00:55:10.602Z,97526.39
2023-03-31T00:56:46.576Z,97520.34
2023-03-31T00:58:15.264Z,97520.23
2023-03-31T00:59:57.260Z,97516.46
2023-03-31T01:01:30.999Z,97519.81
2023-03-31T01:03:16.214Z,97525.51
2023-03-31T01:04:55.002Z,97524.30
2023-03-31T01:06:28.710Z,97522.00
2023-03-31T01:08:02.539Z,97525.50
2023-03-31T01:09:43.114Z,97526.45
2023-03-31T01:11:31.088Z,97528.41
2023-03-31T01:13:10.792Z,97525.84
2023-03-31T01:14:46.418Z,97521.41
2023-03-31T01:16:26.830Z,97516.77
2023-03-31T01:18:12.117Z,97518.77
2023-03-31T01:19:47.362Z,97496.66
2023-03-31T01:21:23.324Z,97513.11
2023-03-31T01:23:11.073Z,97517.92
2023-03-31T01:24:51.649Z,97514.25
2023-03-31T01:26:28.758Z,97522.61
2023-03-31T01:28:13.297Z,97524.31
2023-03-31T01:29:46.578Z,97531.23
2023-03-31T01:31:32.355Z,97527.23
2023-03-31T01:33:19.668Z,97530.35
2023-03-31T01:34:41.832Z,97536.68
2023-03-31T01:36:17.965Z,97531.77
2023-03-31T01:37:44.309Z,97539.15
2023-03-31T01:39:17.735Z,97538.98
2023-03-31T01:41:02.792Z,97540.98
2023-03-31T01:42:38.766Z,97540.52
2023-03-31T01:44:24.456Z,97536.85
2023-03-31T01:45:50.750Z,97538.25
2023-03-31T01:47:24.502Z,97542.22
2023-03-31T01:48:57.870Z,97546.39
2023-03-31T01:50:32.698Z,97549.00
2023-03-31T01:52:18.472Z,97546.94
2023-03-31T01:53:54.441Z,97534.21
2023-03-31T01:55:40.126Z,97542.44
2023-03-31T01:57:25.253Z,97547.48
2023-03-31T01:58:54.850Z,97547.88
2023-03-31T02:00:48.492Z,97547.62
2023-03-31T02:02:24.297Z,97535.67
2023-03-31T02:04:00.106Z,97541.33
2023-03-31T02:05:54.641Z,97539.40
2023-03-31T02:07:27.857Z,97538.05
2023-03-31T02:09:04.137Z,97535.88
2023-03-31T02:10:37.496Z,97539.77
2023-03-31T02:12:13.450Z,97535.60
2023-03-31T02:13:47.307Z,97534.09
2023-03-31T02:15:23.137Z,97534.16
2023-03-31T02:16:59.157Z,97536.89
2023-03-31T02:18:26.271Z,97536.46
2023-03-31T02:20:16.643Z,97534.94
2023-03-31T02:21:50.185Z,97537.44
2023-03-31T02:23:43.894Z,97536.27
2023-03-31T02:25:19.685Z,97538.45
2023-03-31T02:26:43.460Z,97541.55
2023-03-31T02:28:28.547Z,97538.54
2023-03-31T02:30:03.860Z,97536.81
2023-03-31T02:31:39.997Z,97535.73
2023-03-31T02:33:16.135Z,97531.27
2023-03-31T02:34:54.199Z,97532.72
2023-03-31T02:36:35.950Z,97527.23
2023-03-31T02:38:11.884Z,97523.89
2023-03-31T02:39:56.994Z,97524.33
2023-03-31T02:41:41.993Z,97518.80
2023-03-31T02:43:22.921Z,97523.15
2023-03-31T02:45:10.441Z,97525.69
2023-03-31T02:46:43.943Z,97528.80
2023-03-31T02:48:19.627Z,97522.39
2023-03-31T02:49:52.691Z,97524.30
2023-03-31T02:51:26.818Z,97519.91
2023-03-31T02:52:50.836Z,97513.61
2023-03-31T02:54:26.504Z,97516.34
2023-03-31T02:56:03.088Z,97518.36
2023-03-31T02:57:49.109Z,97518.11
2023-03-31T02:59:34.585Z,97516.04
2023-03-31T03:01:10.251Z,97520.05
2023-03-31T03:02:51.284Z,97508.98
2023-03-31T03:04:25.278Z,97504.83
2023-03-31T03:06:06.114Z,97508.03
2023-03-31T03:07:58.785Z,97511.71
2023-03-31T03:09:32.701Z,97520.67
2023-03-31T03:11:18.401Z,97526.21
2023-03-31T03:13:03.385Z,97523.14
2023-03-31T03:14:28.559Z,97528.88
2023-03-31T03:16:01.844Z,97523.23
2023-03-31T03:17:33.607Z,97526.56
2023-03-31T03:19:15.510Z,97527.96
2023-03-31T03:20:53.260Z,97524.63
2023-03-31T03:22:43.660Z,97522.77
2023-03-31T03:24:24.229Z,97518.67
2023-03-31T03:26:09.396Z,97515.61
2023-03-31T03:27:54.607Z,97518.36
2023-03-31T03:29:30.100Z,97521.42
2023-03-31T03:31:14.587Z,97518.61
2023-03-31T03:33:08.287Z,97521.29
2023-03-31T03:34:52.167Z,97524.44
2023-03-31T03:36:41.564Z,97527.60
2023-03-31T03:38:14.812Z,97522.04
2023-03-31T03:39:59.679Z,97526.95
2023-03-31T03:41:25.782Z,97532.55
2023-03-31T03:43:08.874Z,97527.33
2023-03-31T03:44:46.426Z,97532.22
2023-03-31T03:46:10.345Z,97533.62
2023-03-31T03:47:56.439Z,97536.15
2023-03-31T03:49:29.968Z,97531.73
2023-03-31T03:51:14.957Z,97531.73
2023-03-31T03:52:48.394Z,97533.30
2023-03-31T03:54:41.992Z,97527.03
2023-03-31T03:56:03.472Z,97524.64
2023-03-31T03:57:47.543Z,97527.36
2023-03-31T03:59:21.175Z,97524.70
2023-03-31T04:00:50.580Z,97521.94
2023-03-31T04:02:26.848Z,97528.91
2023-03-31T04:04:13.318Z,97527.91
2023-03-31T04:05:58.450Z,97526.00
2023-03-31T04:07:29.914Z,97522.41
2023-03-31T04:09:03.923Z,97528.47
2023-03-31T04:10:39.967Z,97521.49
2023-03-31T04:12:13.225Z,97520.26
2023-03-31T04:13:56.648Z,97520.23
2023-03-31T04:15:30.589Z,97525.62
2023-03-31T04:17:03.857Z,97520.02
2023-03-31T04:18:39.659Z,97512.88
2023-03-31T04:20:25.139Z,97516.00
2023-03-31T04:22:02.316Z,97515.80
2023-03-31T04:23:38.447Z,97513.11
2023-03-31T04:25:02.844Z,97517.73
2023-03-31T04:26:56.590Z,97513.95
2023-03-31T04:28:29.999Z,97513.20
2023-03-31T04:30:14.953Z,97516.66
2023-03-31T04:31:59.887Z,97511.16
2023-03-31T04:33:23.591Z,97507.90
2023-03-31T04:34:58.372Z,97511.00
2023-03-31T04:36:20.053Z,97508.45
2023-03-31T04:38:10.357Z,97501.56
2023-03-31T04:39:34.742Z,97502.75
2023-03-31T04:41:15.474Z,97497.05
2023-03-31T04:42:51.225Z,97499.09
2023-03-31T04:44:26.931Z,97498.91
2023-03-31T04:46:02.383Z,97495.91
2023-03-31T04:47:48.891Z,97492.89
2023-03-31T04:49:29.556Z,97494.71
2023-03-31T04:51:04.277Z,97495.13
2023-03-31T04:52:39.979Z,97490.66
2023-03-31T04:54:20.778Z,97487.12
2023-03-31T04:56:06.532Z,97486.54
2023-03-31T04:57:30.905Z,97488.73
2023-03-31T04:59:04.371Z,97485.71
2023-03-31T05:00:54.289Z,97487.70
2023-03-31T05:02:35.461Z,97488.71
2023-03-31T05:04:09.336Z,97482.89
2023-03-31T05:05:46.389Z,97483.86
2023-03-31T05:07:12.708Z,97486.05
2023-03-31T05:08:49.012Z,97481.01
2023-03-31T05:10:13.177Z,97480.87
2023-03-31T05:11:35.285Z,97483.27
2023-03-31T05:13:10.095Z,97476.80
2023-03-31T05:15:00.364Z,97477.70
2023-03-31T05:16:52.522Z,97482.63
2023-03-31T05:18:33.265Z,97482.28
2023-03-31T05:20:13.874Z,97477.41
2023-03-31T05:21:54.957Z,97475.27
2023-03-31T05:23:28.329Z,97475.85
2023-03-31T05:25:13.335Z,97478.16
2023-03-31T05:27:01.468Z,97474.32
2023-03-31T05:28:44.308Z,97474.10
2023-03-31T05:30:18.249Z,97470.80
2023-03-31T05:31:58.693Z,97468.98
2023-03-31T05:33:47.045Z,97475.33
2023-03-31T05:35:20.507Z,97470.84
2023-03-31T05:36:55.040Z,97471.70
2023-03-31T05:38:41.832Z,97474.14
2023-03-31T05:40:15.319Z,97479.70
2023-03-31T05:42:00.016Z,97476.33
2023-03-31T05:43:35.480Z,97458.27
2023-03-31T05:45:18.483Z,97470.54
2023-03-31T05:47:03.511Z,97470.87
2023-03-31T05:48:38.040Z,97472.20
2023-03-31T05:50:14.041Z,97468.65
2023-03-31T05:52:07.766Z,97467.91
2023-03-31T05:53:48.482Z,97469.41
2023-03-31T05:55:33.882Z,97468.41
2023-03-31T05:57:18.813Z,97471.26
2023-03-31T05:59:12.121Z,97472.17
2023-03-31T06:00:57.171Z,97471.41
2023-03-31T06:02:51.617Z,97461.99
2023-03-31T06:04:37.108Z,97461.69
2023-03-31T06:06:24.585Z,97462.89
2023-03-31T06:07:58.084Z,97460.48
2023-03-31T06:09:46.343Z,97461.39
2023-03-31T06:11:19.736Z,97459.98
2023-03-31T06:12:43.854Z,97459.16
2023-03-31T06:14:28.621Z,97441.18
2023-03-31T06:16:04.294Z,97454.05
2023-03-31T06:17:55.872Z,97441.55
2023-03-31T06:19:40.939Z,97451.98
2023-03-31T06:21:26.025Z,97455.59
2023-03-31T06:23:11.228Z,97450.14
2023-03-31T06:24:44.446Z,97449.55
2023-03-31T06:26:15.530Z,97449.56
2023-03-31T06:28:00.506Z,97446.20
2023-03-31T06:29:34.182Z,97447.21
2023-03-31T06:31:14.765Z,97449.27
2023-03-31T06:32:48.621Z,97449.76
2023-03-31T06:34:21.905Z,97449.91
2023-03-31T06:36:06.665Z,97453.38
2023-03-31T06:37:53.069Z,97450.83
2023-03-31T06:39:28.227Z,97454.70
2023-03-31T06:41:01.627Z,97450.59
2023-03-31T06:42:36.976Z,97445.59
2023-03-31T06:44:12.843Z,97445.33
2023-03-31T06:46:00.329Z,97441.83
2023-03-31T06:47:26.572Z,97441.88
2023-03-31T06:49:08.890Z,97439.25
2023-03-31T06:50:58.068Z,97444.23
2023-03-31T06:52:43.352Z,97442.64
2023-03-31T06:54:17.199Z,97445.56
2023-03-31T06:55:58.041Z,97448.27
2023-03-31T06:57:26.853Z,97445.40
2023-03-31T06:58:58.589Z,97446.72
2023-03-31T07:00:33.964Z,97442.55
2023-03-31T07:02:19.166Z,97444.44
2023-03-31T07:03:48.523Z,97442.00
2023-03-31T07:05:41.537Z,97442.38
2023-03-31T07:07:17.344Z,97444.73
2023-03-31T07:09:09.328Z,97442.00
2023-03-31T07:10:54.623Z,97443.88
2023-03-31T07:12:31.106Z,97442.80
2023-03-31T07:14:04.538Z,97448.27
2023-03-31T07:15:38.153Z,97447.50
2023-03-31T07:17:11.433Z,97452.45
2023-03-31T07:19:00.066Z,97450.86
2023-03-31T07:20:45.216Z,97447.17
2023-03-31T07:22:29.491Z,97449.86
2023-03-31T07:24:10.670Z,97449.30
2023-03-31T07:26:00.037Z,97445.88
2023-03-31T07:27:33.272Z,97445.70
2023-03-31T07:29:02.432Z,97440.20
2023-03-31T07:30:47.707Z,97442.82
2023-03-31T07:32:29.233Z,97441.75
2023-03-31T07:34:05.252Z,97442.53
2023-03-31T07:35:36.217Z,97436.15
2023-03-31T07:37:21.292Z,97437.34
2023-03-31T07:38:52.765Z,97436.73
2023-03-31T07:40:27.437Z,97436.44
2023-03-31T07:42:03.713Z,97434.06
2023-03-31T07:43:48.806Z,97431.05
2023-03-31T07:45:37.832Z,97435.05
2023-03-31T07:47:11.330Z,97432.39
2023-03-31T07:49:06.483Z,97430.75
2023-03-31T07:50:39.829Z,97428.16
2023-03-31T07:52:24.927Z,97429.10
2023-03-31T07:54:18.604Z,97428.82
2023-03-31T07:56:03.524Z,97418.59
2023-03-31T07:57:51.607Z,97414.70
2023-03-31T07:59:24.888Z,97412.88
2023-03-31T08:01:05.592Z,97412.70
2023-03-31T08:02:48.572Z,97407.80
2023-03-31T08:04:34.008Z,97404.23
2023-03-31T08:06:14.741Z,97408.63
2023-03-31T08:07:55.809Z,97402.42
2023-03-31T08:09:37.251Z,97391.88
2023-03-31T08:11:22.301Z,97390.91
2023-03-31T08:13:08.733Z,97391.85
2023-03-31T08:14:54.482Z,97395.31
2023-03-31T08:16:39.520Z,97399.23
2023-03-31T08:18:21.923Z,97401.70
2023-03-31T08:20:08.035Z,97397.57
2023-03-31T08:21:42.181Z,97393.17
2023-03-31T08:23:15.706Z,97389.04
2023-03-31T08:25:00.671Z,97388.56
2023-03-31T08:26:24.163Z,97389.98
2023-03-31T08:27:57.589Z,97386.48
2023-03-31T08:29:31.279Z,97383.67
2023-03-31T08:30:57.691Z,97385.85
2023-03-31T08:32:31.315Z,97390.02
2023-03-31T08:34:11.881Z,97388.69
2023-03-31T08:35:45.450Z,97391.09
2023-03-31T08:37:26.078Z,97386.33
2023-03-31T08:39:06.858Z,97386.61
2023-03-31T08:40:40.593Z,97385.42
2023-03-31T08:42:27.125Z,97380.79
2023-03-31T08:44:00.489Z,97376.87
2023-03-31T08:45:46.826Z,97377.20
2023-03-31T08:47:27.678Z,97373.09
2023-03-31T08:49:12.794Z,97367.61
2023-03-31T08:50:46.095Z,97365.81
2023-03-31T08:52:19.406Z,97366.10
2023-03-31T08:53:55.949Z,97363.41
2023-03-31T08:55:41.230Z,97361.33
2023-03-31T08:57:21.831Z,97341.48
2023-03-31T08:59:09.906Z,97366.22
2023-03-31T09:00:43.674Z,97351.95
2023-03-31T09:02:18.478Z,97362.90
2023-03-31T09:04:06.385Z,97364.41
2023-03-31T09:05:49.385Z,97363.40
2023-03-31T09:07:33.405Z,97364.23
2023-03-31T09:09:08.477Z,97362.04
2023-03-31T09:10:37.924Z,97356.44
2023-03-31T09:12:07.890Z,97357.27
2023-03-31T09:13:48.876Z,97355.64
2023-03-31T09:15:34.126Z,97358.06
2023-03-31T09:17:15.396Z,97350.20
2023-03-31T09:18:37.538Z,97350.77
2023-03-31T09:20:11.118Z,97351.95
2023-03-31T09:21:47.046Z,97346.85
2023-03-31T09:23:08.918Z,97347.18
2023-03-31T09:24:33.105Z,97344.87
2023-03-31T09:25:55.147Z,97351.28
2023-03-31T09:27:19.435Z,97346.86
2023-03-31T09:28:43.815Z,97346.55
2023-03-31T09:30:28.761Z,97343.48
2023-03-31T09:31:54.883Z,97344.13
2023-03-31T09:33:35.737Z,97339.14
2023-03-31T09:35:12.448Z,97340.03
2023-03-31T09:36:38.685Z,97335.02
2023-03-31T09:38:02.525Z,97337.61
2023-03-31T09:39:31.424Z,97332.95
2023-03-31T09:40:52.953Z,97330.77
2023-03-31T09:42:14.820Z,97331.14
2023-03-31T09:44:00.154Z,97332.55
2023-03-31T09:45:39.545Z,97331.19
2023-03-31T09:47:13.194Z,97333.85
2023-03-31T09:48:48.394Z,97327.71
2023-03-31T09:50:25.432Z,97326.68
2023-03-31T09:51:47.861Z,97323.81
2023-03-31T09:55:36.055Z,97319.52
2023-03-31T09:57:09.023Z,97317.24
2023-03-31T09:58:44.465Z,97319.99
2023-03-31T10:00:28.084Z,97310.13
2023-03-31T10:02:13.252Z,97315.15
2023-03-31T10:03:58.283Z,97310.19
2023-03-31T10:05:32.344Z,97307.41
2023-03-31T10:07:13.233Z,97307.17
2023-03-31T10:08:55.077Z,97303.78
2023-03-31T10:10:26.263Z,97300.09
2023-03-31T10:11:59.702Z,97294.23
2023-03-31T10:13:33.275Z,97295.57
2023-03-31T10:15:18.478Z,97294.48
2023-03-31T10:16:58.740Z,97287.43
2023-03-31T10:18:48.290Z,97284.61
2023-03-31T10:20:28.706Z,97284.32
2023-03-31T10:22:04.858Z,97279.36
2023-03-31T10:23:58.329Z,97278.50
2023-03-31T10:25:39.621Z,97266.02
2023-03-31T10:27:12.728Z,97272.88
2023-03-31T10:28:58.919Z,97273.89
2023-03-31T10:30:43.962Z,97265.30
2023-03-31T10:32:29.250Z,97264.20
2023-03-31T10:34:11.620Z,97263.33
2023-03-31T10:36:05.287Z,97251.05
2023-03-31T10:37:41.091Z,97253.72
2023-03-31T10:39:14.547Z,97247.69
2023-03-31T10:40:59.831Z,97244.69
2023-03-31T10:42:45.057Z,97247.61
2023-03-31T10:44:25.662Z,97241.27
2023-03-31T10:46:01.183Z,97239.15
2023-03-31T10:47:25.053Z,97237.86
2023-03-31T10:49:01.198Z,97240.48
2023-03-31T10:50:34.426Z,97233.76
2023-03-31T10:52:14.975Z,97228.95
2023-03-31T10:53:48.733Z,97230.80
2023-03-31T10:55:22.030Z,97230.83
2023-03-31T10:56:44.706Z,97233.84
2023-03-31T10:58:06.657Z,97235.27
2023-03-31T10:59:36.643Z,97237.86
2023-03-31T11:01:13.216Z,97238.45
2023-03-31T11:02:59.000Z,97233.66
2023-03-31T11:04:35.364Z,97229.84
2023-03-31T11:06:12.159Z,97215.93
2023-03-31T11:07:56.663Z,97225.48
2023-03-31T11:09:30.074Z,97224.16
2023-03-31T11:11:15.359Z,97226.25
2023-03-31T11:13:04.873Z,97225.33
2023-03-31T11:14:40.832Z,97222.69
2023-03-31T11:16:26.476Z,97221.44
2023-03-31T11:18:02.677Z,97216.86
2023-03-31T11:19:48.845Z,97214.46
2023-03-31T11:21:24.228Z,97205.15
2023-03-31T11:23:06.793Z,97213.86
2023-03-31T11:24:35.442Z,97212.31
2023-03-31T11:26:20.481Z,97207.48
2023-03-31T11:27:53.741Z,97202.79
2023-03-31T11:29:30.909Z,97187.20
2023-03-31T11:30:52.544Z,97194.88
2023-03-31T11:32:31.217Z,97191.67
2023-03-31T11:34:04.730Z,97193.63
2023-03-31T11:35:38.494Z,97188.38
2023-03-31T11:37:13.202Z,97193.02
2023-03-31T11:38:54.228Z,97185.70
2023-03-31T11:40:34.440Z,97183.04
2023-03-31T11:42:27.700Z,97186.75
2023-03-31T11:44:14.262Z,97185.74
2023-03-31T11:45:59.453Z,97195.34
2023-03-31T11:47:44.609Z,97184.16
2023-03-31T11:49:17.972Z,97179.14
2023-03-31T11:50:53.872Z,97180.90
2023-03-31T11:54:29.497Z,97175.70
2023-03-31T11:56:10.844Z,97169.56
2023-03-31T11:58:04.023Z,97166.10
2023-03-31T11:59:29.900Z,97166.34
2023-03-31T12:01:15.175Z,97157.59
2023-03-31T12:03:04.291Z,97151.98
2023-03-31T12:04:37.726Z,97146.75
2023-03-31T12:06:23.564Z,97140.27
2023-03-31T12:07:48.109Z,97139.79
2023-03-31T12:09:21.075Z,97137.27
2023-03-31T12:10:59.149Z,97133.05
2023-03-31T12:12:42.629Z,97136.71
2023-03-31T12:14:18.044Z,97138.06
2023-03-31T12:15:51.493Z,97135.41
2023-03-31T12:17:36.370Z,97134.75
2023-03-31T12:19:00.858Z,97133.22
2023-03-31T12:20:41.734Z,97132.20
2023-03-31T12:22:22.371Z,97132.31
2023-03-31T12:23:58.570Z,97128.62
2023-03-31T12:25:22.854Z,97125.99
2023-03-31T12:27:03.915Z,97121.86
2023-03-31T12:28:57.459Z,97119.28
2023-03-31T12:30:42.920Z,97103.21
2023-03-31T12:32:16.406Z,97121.04
2023-03-31T12:33:59.593Z,97121.89
2023-03-31T12:35:49.112Z,97115.25
2023-03-31T12:37:31.077Z,97115.05
2023-03-31T12:39:16.264Z,97111.27
2023-03-31T12:41:10.608Z,97104.16
2023-03-31T12:42:45.680Z,97104.94
2023-03-31T12:44:26.295Z,97104.41
2023-03-31T12:45:57.781Z,97103.36
2023-03-31T12:47:42.634Z,97096.22
2023-03-31T12:49:36.567Z,97095.60
2023-03-31T12:51:13.242Z,97094.14
2023-03-31T12:52:58.027Z,97088.70
2023-03-31T12:54:31.082Z,97084.13
2023-03-31T12:55:57.639Z,97084.09
2023-03-31T12:57:19.357Z,97083.16
2023-03-31T12:58:52.655Z,97086.18
2023-03-31T13:00:37.916Z,97085.74
2023-03-31T13:02:29.299Z,97083.98
2023-03-31T13:04:15.832Z,97084.38
2023-03-31T13:05:43.430Z,97077.75
2023-03-31T13:07:27.941Z,97077.52
2023-03-31T13:09:16.099Z,97073.20
2023-03-31T13:10:51.853Z,97066.93
2023-03-31T13:12:25.605Z,97066.54
2023-03-31T13:14:00.809Z,97065.63
2023-03-31T13:15:34.525Z,97060.86
2023-03-31T13:17:09.963Z,97053.11
2023-03-31T13:18:44.999Z,97055.10
2023-03-31T13:20:20.390Z,97050.30
2023-03-31T13:21:53.991Z,97042.15
2023-03-31T13:23:30.494Z,97039.02
2023-03-31T13:25:06.534Z,97042.12
2023-03-31T13:26:30.769Z,97032.65
2023-03-31T13:28:15.643Z,97028.10
2023-03-31T13:30:09.231Z,97025.80
2023-03-31T13:31:45.166Z,97020.04
2023-03-31T13:33:18.371Z,97013.52
2023-03-31T13:35:04.202Z,97016.52
2023-03-31T13:36:27.980Z,97014.40
2023-03-31T13:38:01.405Z,97008.36
2023-03-31T13:39:54.792Z,97007.00
2023-03-31T13:41:40.263Z,97005.08
2023-03-31T13:43:09.086Z,97000.52
2023-03-31T13:44:44.597Z,97004.52
2023-03-31T13:46:29.484Z,97000.67
2023-03-31T13:47:53.547Z,96999.04
2023-03-31T13:49:24.809Z,96994.63
2023-03-31T13:50:53.758Z,96993.26
2023-03-31T13:52:34.327Z,96986.76
2023-03-31T13:53:56.356Z,96991.68
2023-03-31T13:55:31.525Z,96983.08
2023-03-31T13:57:22.583Z,96978.20
2023-03-31T13:59:14.512Z,96973.88
2023-03-31T14:00:48.181Z,96977.23
2023-03-31T14:02:30.727Z,96972.77
2023-03-31T14:04:00.071Z,96964.49
2023-03-31T14:05:36.202Z,96958.35
2023-03-31T14:07:18.086Z,96968.11
2023-03-31T14:09:04.606Z,96958.32
2023-03-31T14:10:58.620Z,96955.88
2023-03-31T14:12:40.078Z,96952.61
2023-03-31T14:14:24.890Z,96944.59
2023-03-31T14:15:58.505Z,96935.98
2023-03-31T14:17:32.048Z,96937.98
2023-03-31T14:19:17.056Z,96933.59
2023-03-31T14:20:39.088Z,96937.98
2023-03-31T14:22:07.862Z,96936.06
2023-03-31T14:24:01.435Z,96936.54
2023-03-31T14:25:56.578Z,96929.88
2023-03-31T14:27:45.600Z,96930.89
2023-03-31T14:29:20.650Z,96927.08
2023-03-31T14:31:05.994Z,96928.91
2023-03-31T14:32:51.813Z,96920.95
2023-03-31T14:34:27.761Z,96923.48
2023-03-31T14:36:01.860Z,96922.66
2023-03-31T14:37:37.714Z,96908.53
2023-03-31T14:39:22.937Z,96917.69
2023-03-31T14:41:16.384Z,96919.19
2023-03-31T14:43:01.496Z,96914.73
2023-03-31T14:44:54.906Z,96906.48
2023-03-31T14:46:35.627Z,96905.94
2023-03-31T14:48:11.209Z,96905.13
2023-03-31T14:49:56.879Z,96910.65
2023-03-31T14:51:23.432Z,96939.73
2023-03-31T14:53:08.100Z,96941.33
2023-03-31T14:54:49.732Z,96935.91
2023-03-31T14:56:44.629Z,96952.27
2023-03-31T14:58:29.406Z,96937.77
2023-03-31T14:59:53.574Z,96937.00
2023-03-31T15:01:47.336Z,96932.37
2023-03-31T15:05:31.903Z,96917.82
2023-03-31T15:07:03.093Z,96908.86
2023-03-31T15:08:57.291Z,96903.58
2023-03-31T15:10:30.490Z,96902.27
2023-03-31T15:12:11.972Z,96899.33
2023-03-31T15:13:53.052Z,96898.46
2023-03-31T15:15:56.618Z,96899.35
2023-03-31T15:17:32.528Z,96893.38
2023-03-31T15:19:01.960Z,96897.64
2023-03-31T15:20:28.191Z,96892.87
2023-03-31T15:22:01.581Z,96891.89
2023-03-31T15:23:25.405Z,96886.98
2023-03-31T15:24:49.554Z,96888.86
2023-03-31T15:26:22.590Z,96886.77
2023-03-31T15:28:10.980Z,96883.10
2023-03-31T15:29:44.845Z,96882.76
2023-03-31T15:31:20.431Z,96875.92
2023-03-31T15:32:42.466Z,96877.44
2023-03-31T15:34:28.979Z,96875.32
2023-03-31T15:36:03.802Z,96872.48
2023-03-31T15:37:55.317Z,96871.66
2023-03-31T15:39:37.024Z,96870.59
2023-03-31T15:41:06.461Z,96879.29
2023-03-31T15:42:28.069Z,96876.71
2023-03-31T15:43:59.323Z,96877.76
2023-03-31T15:45:33.052Z,96875.97
2023-03-31T15:47:08.917Z,96878.14
2023-03-31T15:48:33.429Z,96876.01
2023-03-31T15:50:08.130Z,96878.89
2023-03-31T15:51:29.760Z,96870.24
2023-03-31T15:52:53.142Z,96878.07
2023-03-31T15:54:26.506Z,96875.05
2023-03-31T15:56:02.110Z,96875.73
2023-03-31T15:57:34.294Z,96872.67
2023-03-31T15:59:19.550Z,96871.91
2023-03-31T16:01:04.682Z,96870.36
2023-03-31T16:02:36.689Z,96865.77
2023-03-31T16:04:27.792Z,96855.31
2023-03-31T16:06:04.155Z,96856.93
2023-03-31T16:07:37.957Z,96849.24
2023-03-31T16:09:21.974Z,96844.20
2023-03-31T16:11:07.210Z,96847.71
2023-03-31T16:13:00.978Z,96844.88
2023-03-31T16:14:36.626Z,96832.94
2023-03-31T16:16:01.206Z,96835.89
2023-03-31T16:17:36.481Z,96837.38
2023-03-31T16:19:04.096Z,96833.90
2023-03-31T16:20:49.514Z,96835.21
2023-03-31T16:22:36.499Z,96833.61
2023-03-31T16:24:29.941Z,96833.63
2023-03-31T16:26:05.451Z,96832.89
2023-03-31T16:27:50.660Z,96825.85
2023-03-31T16:29:23.642Z,96829.66
2023-03-31T16:31:08.876Z,96828.13
2023-03-31T16:32:55.053Z,96828.64
2023-03-31T16:34:16.805Z,96824.93
2023-03-31T16:35:50.144Z,96824.30
2023-03-31T16:37:23.496Z,96823.25
2023-03-31T16:39:15.753Z,96818.92
2023-03-31T16:40:52.080Z,96819.85
2023-03-31T16:42:45.639Z,96812.16
2023-03-31T16:44:30.680Z,96819.26
2023-03-31T16:46:15.911Z,96818.56
2023-03-31T16:47:49.714Z,96820.13
2023-03-31T16:49:23.140Z,96813.51
2023-03-31T16:51:04.575Z,96817.93
2023-03-31T16:52:50.052Z,96817.42
2023-03-31T16:54:34.341Z,96817.54
2023-03-31T16:55:59.319Z,96819.98
2023-03-31T16:57:44.489Z,96814.96
2023-03-31T16:59:23.232Z,96815.55
2023-03-31T17:01:08.451Z,96815.35
2023-03-31T17:03:01.973Z,96819.38
2023-03-31T17:04:38.251Z,96817.73
2023-03-31T17:06:22.981Z,96816.92
2023-03-31T17:08:12.503Z,96805.23
2023-03-31T17:09:49.672Z,96812.73
2023-03-31T17:11:32.379Z,96815.08
2023-03-31T17:13:09.191Z,96813.50
2023-03-31T17:14:40.925Z,96812.69
2023-03-31T17:16:32.907Z,96813.39
2023-03-31T17:18:18.427Z,96812.29
2023-03-31T17:20:01.285Z,96811.02
2023-03-31T17:21:34.590Z,96810.50
2023-03-31T17:23:19.451Z,96807.80
2023-03-31T17:25:08.772Z,96802.45
2023-03-31T17:26:39.349Z,96809.52
2023-03-31T17:28:15.302Z,96806.02
2023-03-31T17:30:00.887Z,96802.36
2023-03-31T17:31:24.762Z,96802.96
2023-03-31T17:33:10.378Z,96806.31
2023-03-31T17:35:00.568Z,96803.89
2023-03-31T17:36:45.591Z,96805.02
2023-03-31T17:38:31.018Z,96802.77
2023-03-31T17:40:12.972Z,96801.53
2023-03-31T17:41:49.240Z,96799.27
2023-03-31T17:43:29.406Z,96800.34
2023-03-31T17:45:04.040Z,96804.58
2023-03-31T17:46:52.112Z,96806.90
2023-03-31T17:48:16.340Z,96810.99
2023-03-31T17:49:51.846Z,96809.06
2023-03-31T17:51:36.386Z,96818.64
2023-03-31T17:53:18.195Z,96825.77
2023-03-31T17:55:05.398Z,96825.67
2023-03-31T17:56:59.087Z,96823.67
2023-03-31T17:58:44.234Z,96824.70
2023-03-31T18:00:08.880Z,96821.60
2023-03-31T18:02:05.410Z,96822.98
2023-03-31T18:03:47.448Z,96824.85
2023-03-31T18:05:40.459Z,96826.89
2023-03-31T18:07:25.906Z,96824.96
2023-03-31T18:09:20.508Z,96826.54
2023-03-31T18:13:07.866Z,96828.20
2023-03-31T18:14:53.845Z,96818.85
2023-03-31T18:21:33.478Z,96817.71
2023-03-31T18:22:55.109Z,96817.21
2023-03-31T18:32:16.404Z,96813.15
2023-03-31T18:36:27.563Z,96811.13
2023-03-31T18:38:09.312Z,96806.05
2023-03-31T18:42:27.322Z,96790.96
2023-03-31T18:43:58.679Z,96777.23
2023-03-31T18:48:05.653Z,96761.16
2023-03-31T18:55:05.837Z,96756.30
2023-03-31T18:56:39.475Z,96760.27
2023-03-31T18:58:51.797Z,96757.77
2023-03-31T19:00:36.596Z,96763.72
2023-03-31T19:02:21.651Z,96769.15
2023-03-31T19:15:00.173Z,96762.12
2023-03-31T19:21:44.069Z,96746.55
2023-03-31T19:23:28.949Z,96761.52
2023-03-31T19:25:13.940Z,96757.59
2023-03-31T19:26:41.234Z,96759.09
2023-03-31T19:28:04.112Z,96758.98
2023-03-31T19:29:27.791Z,96757.23
2023-03-31T19:31:08.927Z,96759.63
2023-03-31T19:32:46.006Z,96761.09
2023-03-31T19:34:19.748Z,96760.05
2023-03-31T19:35:51.318Z,96761.27
2023-03-31T19:37:41.075Z,96759.22
2023-03-31T19:39:14.576Z,96756.25
2023-03-31T19:40:54.725Z,96750.61
2023-03-31T19:42:35.497Z,96745.16
2023-03-31T19:44:16.796Z,96739.45
2023-03-31T19:46:02.390Z,96739.06
2023-03-31T19:47:56.377Z,96722.05
2023-03-31T19:49:28.317Z,96728.64
2023-03-31T19:50:52.979Z,96729.27
2023-03-31T19:52:28.373Z,96729.06
2023-03-31T19:53:57.881Z,96731.33
2023-03-31T19:55:34.290Z,96737.25
2023-03-31T19:57:01.787Z,96738.23
2023-03-31T19:58:44.254Z,96732.30
2023-03-31T20:00:19.941Z,96734.45
2023-03-31T20:02:13.495Z,96735.85
2023-03-31T20:04:07.256Z,96735.10
2023-03-31T20:05:43.752Z,96741.83
2023-03-31T20:07:17.946Z,96735.17
2023-03-31T20:08:42.639Z,96734.77